Ashville, Ohio
Current Conditions -  °F | °C
As of 2:35 AM on Thursday 23 Oct 2014 (Local Time) from KLCK Reporting Station
Clear Clear  
Wind Chill: 41°   Ceiling: Unl
Heat Index: 44°   Visibility: 10mi
Dew Point: 40°   Wind: 6mph
Humidity: 85%   Direction: 330°NNW
Pressure: 30.23"   Gusts: NA
Location:  39.72°N, 82.95°W
Report Text: KLCK 230635Z AUTO 33005KT 10SM CLR 07/05 A3023 RMK AO2 T00680045
Loading
Personal Weather Stations






























Interactive Weather Map
Tropical Storm Tracking
New forecast layout! Learn more

10-Day Weather Forecast

Advertisements
Track Severe Weather on mobile